Time;durP1;ratioP1;P1;durP2;ratioP2;P2;SDS_P1;SDS_P2;PMS_P1;PMS_P2;Temp;Humidity;BMP_temperature;BMP_pressure;BME280_temperature;BME280_humidity;BME280_pressure;Samples;Min_cycle;Max_cycle;Signal;HPM_P1;HPM_P2
2022/10/16 00:01:11;;;;;;;6.90;1.73;;;14.00;63.90;;;;;;4992696;28;20026;-79
2022/10/16 00:03:38;;;;;;;8.50;1.98;;;14.00;64.00;;;;;;4988713;28;20041;-79
2022/10/16 00:06:05;;;;;;;11.27;2.10;;;14.00;64.00;;;;;;4981596;28;20046;-78
2022/10/16 00:08:31;;;;;;;8.20;1.98;;;14.00;64.10;;;;;;4990564;28;20037;-79
2022/10/16 00:11:07;;;;;;;6.57;1.98;;;13.90;63.90;;;;;;4995636;28;20034;-78
2022/10/16 00:13:34;;;;;;;7.13;1.63;;;13.90;64.00;;;;;;4991456;28;20022;-80
2022/10/16 00:16:01;;;;;;;6.80;2.08;;;13.90;64.10;;;;;;4990735;28;20026;-78
2022/10/16 00:18:29;;;;;;;7.82;1.83;;;13.90;64.10;;;;;;4989641;28;20033;-79
2022/10/16 00:20:56;;;;;;;11.00;1.92;;;13.90;64.10;;;;;;4988831;28;20023;-78
2022/10/16 00:23:23;;;;;;;11.55;3.35;;;13.90;64.20;;;;;;4989998;28;20403;-78
2022/10/16 00:25:57;;;;;;;8.20;2.55;;;13.80;64.10;;;;;;4990669;28;20401;-77
2022/10/16 00:28:24;;;;;;;9.00;2.42;;;13.80;64.10;;;;;;4992469;28;20030;-77
2022/10/16 00:30:50;;;;;;;8.43;3.60;;;13.80;64.10;;;;;;4998717;28;20036;-79
2022/10/16 00:33:15;;;;;;;4.65;2.17;;;13.80;64.20;;;;;;4990293;28;20062;-78
2022/10/16 00:35:41;;;;;;;8.73;2.65;;;13.80;64.20;;;;;;4990725;28;20030;-79
2022/10/16 00:38:07;;;;;;;7.50;2.17;;;13.70;64.10;;;;;;4990539;28;20181;-78
2022/10/16 00:40:33;;;;;;;5.63;1.63;;;13.70;64.20;;;;;;4996689;28;20081;-78
2022/10/16 00:42:59;;;;;;;8.82;2.17;;;13.70;64.20;;;;;;4972956;28;20030;-79
2022/10/16 00:45:25;;;;;;;8.57;2.17;;;13.70;64.30;;;;;;4992009;28;20042;-78
2022/10/16 00:47:53;;;;;;;9.32;2.17;;;13.70;64.40;;;;;;4992337;28;20084;-79
2022/10/16 00:50:26;;;;;;;9.25;2.13;;;13.70;64.40;;;;;;4989946;28;20057;-78
2022/10/16 00:52:53;;;;;;;5.70;2.05;;;13.60;64.30;;;;;;4995074;28;20557;-80
2022/10/16 00:55:20;;;;;;;8.38;2.00;;;13.70;64.50;;;;;;4992546;28;20068;-79
2022/10/16 00:57:46;;;;;;;10.95;2.25;;;13.60;64.30;;;;;;4989275;28;20040;-78
2022/10/16 01:00:16;;;;;;;9.65;1.88;;;13.60;64.40;;;;;;4993564;28;20155;-78
2022/10/16 01:02:42;;;;;;;6.55;2.03;;;13.60;64.40;;;;;;4992553;28;20030;-79
2022/10/16 01:05:09;;;;;;;7.82;2.13;;;13.60;64.40;;;;;;4983698;28;20081;-79
2022/10/16 01:07:54;;;;;;;7.28;1.83;;;13.60;64.40;;;;;;4991941;28;20041;-78
2022/10/16 01:10:47;;;;;;;7.90;2.17;;;13.60;64.50;;;;;;4990609;28;20037;-79
2022/10/16 01:13:22;;;;;;;11.20;2.22;;;13.60;64.50;;;;;;4996548;28;20026;-78
2022/10/16 01:16:05;;;;;;;9.50;2.80;;;13.60;64.50;;;;;;4985272;28;20030;-78
2022/10/16 01:18:46;;;;;;;8.63;2.25;;;13.50;64.30;;;;;;4985902;28;20019;-79
2022/10/16 01:21:26;;;;;;;8.50;2.03;;;13.50;64.40;;;;;;4973042;28;20055;-80
2022/10/16 01:23:56;;;;;;;10.63;2.92;;;13.50;64.40;;;;;;4974425;28;20031;-76
2022/10/16 01:26:46;;;;;;;11.27;3.50;;;13.50;64.40;;;;;;4994211;28;20046;-79
2022/10/16 01:29:39;;;;;;;7.22;2.58;;;13.50;64.40;;;;;;4980106;28;20113;-79
2022/10/16 01:32:33;;;;;;;10.40;2.33;;;13.50;64.40;;;;;;4987296;28;20059;-78
2022/10/16 01:35:05;;;;;;;5.38;1.60;;;13.40;64.30;;;;;;4992263;28;20093;-78
2022/10/16 01:37:41;;;;;;;8.82;2.22;;;13.40;64.30;;;;;;4991123;28;20034;-79
2022/10/16 01:40:14;;;;;;;10.43;3.17;;;13.40;64.30;;;;;;4994471;28;20100;-78
2022/10/16 01:42:50;;;;;;;5.45;1.50;;;13.40;64.40;;;;;;4988379;28;20030;-79
2022/10/16 01:45:18;;;;;;;7.25;2.30;;;13.40;64.40;;;;;;4989670;28;20034;-79
2022/10/16 01:47:47;;;;;;;8.70;2.22;;;13.40;64.40;;;;;;4985301;28;20038;-78
2022/10/16 01:50:16;;;;;;;7.15;1.80;;;13.30;64.20;;;;;;4994932;28;20038;-78
2022/10/16 01:52:45;;;;;;;6.80;1.50;;;13.30;64.30;;;;;;4993567;28;20034;-79
2022/10/16 01:55:19;;;;;;;7.55;1.60;;;13.30;64.40;;;;;;4995178;28;20030;-77
2022/10/16 01:57:49;;;;;;;8.32;1.92;;;13.30;64.40;;;;;;4994002;28;20529;-77
2022/10/16 02:00:18;;;;;;;8.73;1.88;;;13.30;64.40;;;;;;4997506;28;20041;-77
2022/10/16 02:02:48;;;;;;;6.63;1.63;;;13.30;64.40;;;;;;4995185;28;20038;-78
2022/10/16 02:05:30;;;;;;;7.07;1.80;;;13.30;64.50;;;;;;4977701;28;20829;-78
2022/10/16 02:07:56;;;;;;;5.25;2.05;;;13.30;64.50;;;;;;4977430;28;20088;-78
2022/10/16 02:10:25;;;;;;;4.40;1.70;;;13.30;64.50;;;;;;4985696;28;20030;-79
2022/10/16 02:12:59;;;;;;;5.35;1.42;;;13.30;64.50;;;;;;4991521;28;20034;-78
2022/10/16 02:15:25;;;;;;;7.47;1.67;;;13.20;64.40;;;;;;4995218;28;20026;-78
2022/10/16 02:17:51;;;;;;;7.75;1.63;;;13.20;64.40;;;;;;4990454;28;20026;-78
2022/10/16 02:20:25;;;;;;;6.68;1.70;;;13.20;64.40;;;;;;4992217;28;20026;-78
2022/10/16 02:22:53;;;;;;;6.40;1.70;;;13.20;64.50;;;;;;4987274;28;20090;-78
2022/10/16 02:25:30;;;;;;;6.00;1.58;;;13.10;64.30;;;;;;4987008;28;20117;-78
2022/10/16 02:28:17;;;;;;;7.43;1.73;;;13.10;64.40;;;;;;4989733;28;20034;-78
2022/10/16 02:31:02;;;;;;;8.40;1.85;;;13.10;64.50;;;;;;4999981;28;20026;-79
2022/10/16 02:33:32;;;;;;;6.55;2.28;;;13.10;64.50;;;;;;4994613;28;20106;-78
2022/10/16 02:35:58;;;;;;;7.10;2.78;;;13.10;64.50;;;;;;5006789;28;20625;-78
2022/10/16 02:38:25;;;;;;;7.68;1.52;;;13.10;64.60;;;;;;4981674;28;20102;-77
2022/10/16 02:40:53;;;;;;;7.63;1.77;;;13.10;64.60;;;;;;4979618;28;20113;-78
2022/10/16 02:43:19;;;;;;;6.18;1.40;;;13.10;64.60;;;;;;4993765;28;20125;-79
2022/10/16 02:45:45;;;;;;;4.55;1.80;;;13.00;64.40;;;;;;4992766;28;20080;-78
2022/10/16 02:48:11;;;;;;;14.80;3.28;;;13.00;64.50;;;;;;4959331;28;20030;-78
2022/10/16 02:50:38;;;;;;;6.10;1.15;;;13.00;64.50;;;;;;4989487;28;20486;-78
2022/10/16 02:53:04;;;;;;;5.90;1.67;;;13.00;64.50;;;;;;4992100;28;20042;-78
2022/10/16 02:55:30;;;;;;;6.07;1.42;;;13.00;64.60;;;;;;4990089;28;20027;-77
2022/10/16 02:57:56;;;;;;;4.90;1.35;;;13.00;64.60;;;;;;4988170;28;20041;-78
2022/10/16 03:00:22;;;;;;;7.13;1.55;;;13.00;64.60;;;;;;4995972;28;20031;-78
2022/10/16 03:02:49;;;;;;;7.85;2.28;;;13.00;64.60;;;;;;4997223;28;20070;-78
2022/10/16 03:05:15;;;;;;;8.88;2.08;;;12.90;64.40;;;;;;4995302;28;20085;-77
2022/10/16 03:07:41;;;;;;;6.47;1.40;;;12.90;64.50;;;;;;4995558;28;20452;-79
2022/10/16 03:10:09;;;;;;;8.68;2.00;;;12.90;64.50;;;;;;4995439;28;20106;-79
2022/10/16 03:12:35;;;;;;;5.57;1.58;;;13.00;64.70;;;;;;4964103;28;20171;-79
2022/10/16 03:15:01;;;;;;;6.90;1.45;;;12.90;64.50;;;;;;5005929;28;20026;-79
2022/10/16 03:17:28;;;;;;;8.73;1.73;;;12.90;64.60;;;;;;4998588;28;20125;-79
2022/10/16 03:19:54;;;;;;;7.43;1.70;;;12.90;64.60;;;;;;4996166;28;20078;-79
2022/10/16 03:22:20;;;;;;;6.68;1.55;;;12.80;64.40;;;;;;4992830;28;20038;-78
2022/10/16 03:24:45;;;;;;;7.47;1.52;;;12.90;64.60;;;;;;4997551;28;20034;-79
2022/10/16 03:27:11;;;;;;;6.15;2.58;;;12.90;64.60;;;;;;4997364;28;20050;-79
2022/10/16 03:29:37;;;;;;;8.90;2.03;;;12.80;64.40;;;;;;4997479;28;20049;-78
2022/10/16 03:32:03;;;;;;;5.75;1.75;;;12.90;64.60;;;;;;5012128;28;20053;-79
2022/10/16 03:34:29;;;;;;;5.53;1.75;;;12.90;64.60;;;;;;5020066;28;20065;-79
2022/10/16 03:36:55;;;;;;;4.90;1.70;;;12.90;64.60;;;;;;5012521;28;20018;-80
2022/10/16 03:39:21;;;;;;;9.40;1.80;;;12.90;64.60;;;;;;5009708;28;20022;-79
2022/10/16 03:41:47;;;;;;;8.82;1.55;;;12.90;64.60;;;;;;4980021;28;20122;-78
2022/10/16 03:44:13;;;;;;;10.70;2.40;;;12.90;64.60;;;;;;5033766;28;20109;-79
2022/10/16 03:46:39;;;;;;;9.95;2.22;;;12.90;64.60;;;;;;5009470;28;20145;-77
2022/10/16 03:49:05;;;;;;;9.18;2.58;;;12.90;64.60;;;;;;5001475;28;20030;-78
2022/10/16 03:51:31;;;;;;;5.30;1.40;;;12.90;64.60;;;;;;4999616;28;20053;-78
2022/10/16 03:53:57;;;;;;;9.75;1.75;;;12.90;64.70;;;;;;5000245;28;20033;-78
2022/10/16 03:56:23;;;;;;;4.78;1.30;;;13.00;64.80;;;;;;5014231;28;20062;-79
2022/10/16 03:58:50;;;;;;;10.07;1.58;;;12.90;64.70;;;;;;5001568;28;20050;-77
2022/10/16 04:01:16;;;;;;;8.73;2.30;;;12.90;64.70;;;;;;4993357;28;20026;-79
2022/10/16 04:03:43;;;;;;;6.38;1.55;;;12.90;64.70;;;;;;4965030;28;20129;-78
2022/10/16 04:06:09;;;;;;;5.72;1.52;;;13.00;64.90;;;;;;5010815;28;20050;-78
2022/10/16 04:08:36;;;;;;;5.97;1.20;;;13.00;65.00;;;;;;5007156;28;20604;-78
2022/10/16 04:11:03;;;;;;;5.72;1.60;;;12.90;64.80;;;;;;4997805;28;20080;-78
2022/10/16 04:13:29;;;;;;;12.07;2.25;;;12.90;64.80;;;;;;4993768;28;20038;-78
2022/10/16 04:15:55;;;;;;;5.53;1.55;;;12.90;64.90;;;;;;4995812;28;20038;-79
2022/10/16 04:18:21;;;;;;;6.88;1.85;;;12.90;64.90;;;;;;5008395;28;20545;-77
2022/10/16 04:20:48;;;;;;;6.97;1.30;;;12.90;65.00;;;;;;4996616;28;20083;-78
2022/10/16 04:23:14;;;;;;;8.25;2.38;;;12.80;64.90;;;;;;5006968;28;20057;-78
2022/10/16 04:25:40;;;;;;;3.55;1.10;;;12.80;65.00;;;;;;4997031;28;20066;-78
2022/10/16 04:28:06;;;;;;;5.15;1.30;;;12.80;65.10;;;;;;4997909;28;20117;-78
2022/10/16 04:30:33;;;;;;;7.13;1.77;;;12.70;65.50;;;;;;4987736;28;20114;-79
2022/10/16 04:32:59;;;;;;;9.23;3.75;;;12.70;65.10;;;;;;4997619;28;20060;-78
2022/10/16 04:35:25;;;;;;;7.88;1.63;;;12.70;65.10;;;;;;4997289;28;20644;-78
2022/10/16 04:37:51;;;;;;;6.07;2.35;;;12.70;65.20;;;;;;4990637;28;20034;-78
2022/10/16 04:40:17;;;;;;;6.05;1.52;;;12.70;65.30;;;;;;4998709;28;20028;-78
2022/10/16 04:42:43;;;;;;;6.95;1.58;;;12.60;65.10;;;;;;4990822;28;20034;-78
2022/10/16 04:45:10;;;;;;;5.38;1.25;;;12.60;65.20;;;;;;4996859;28;20073;-78
2022/10/16 04:47:36;;;;;;;9.60;2.47;;;12.60;65.30;;;;;;4997964;28;20041;-78
2022/10/16 04:50:02;;;;;;;6.70;1.67;;;12.60;65.30;;;;;;5001566;28;20053;-79
2022/10/16 04:52:31;;;;;;;5.18;1.42;;;12.60;65.30;;;;;;4995332;28;20038;-79
2022/10/16 04:55:00;;;;;;;10.27;2.33;;;12.60;65.30;;;;;;5003965;28;20456;-79
2022/10/16 04:57:27;;;;;;;4.78;1.98;;;12.60;65.30;;;;;;4980284;28;20113;-79
2022/10/16 04:59:53;;;;;;;6.63;1.73;;;12.70;65.50;;;;;;4996079;28;20034;-79
2022/10/16 05:02:19;;;;;;;6.30;1.85;;;12.60;65.40;;;;;;4998915;28;20030;-80
2022/10/16 05:04:45;;;;;;;5.20;1.52;;;12.60;65.40;;;;;;4998937;28;20058;-79
2022/10/16 05:07:12;;;;;;;8.07;2.55;;;12.70;66.10;;;;;;4999557;28;20038;-79
2022/10/16 05:09:39;;;;;;;8.38;2.55;;;12.60;65.40;;;;;;5003669;28;20129;-79
2022/10/16 05:12:05;;;;;;;7.10;2.10;;;12.70;65.60;;;;;;4995342;28;20868;-79
2022/10/16 05:14:32;;;;;;;5.85;1.88;;;12.70;65.60;;;;;;4999927;28;20038;-78
2022/10/16 05:17:00;;;;;;;5.00;1.75;;;12.70;65.70;;;;;;4983140;28;20032;-78
2022/10/16 05:19:26;;;;;;;10.57;2.25;;;12.70;65.70;;;;;;5001513;28;20485;-79
2022/10/16 05:21:52;;;;;;;9.15;1.40;;;12.70;65.70;;;;;;4991300;28;20032;-79
2022/10/16 05:24:18;;;;;;;7.28;1.70;;;12.70;65.70;;;;;;4979140;28;20049;-80
2022/10/16 05:26:44;;;;;;;8.25;2.10;;;12.70;65.70;;;;;;5006000;28;20072;-78
2022/10/16 05:29:10;;;;;;;6.05;1.95;;;12.70;66.00;;;;;;5000100;28;20022;-81
2022/10/16 05:31:36;;;;;;;8.55;2.05;;;12.70;65.80;;;;;;4996540;28;20039;-81
2022/10/16 05:34:02;;;;;;;7.03;2.58;;;12.70;66.30;;;;;;4985613;28;20042;-80
2022/10/16 05:36:28;;;;;;;7.22;1.90;;;12.70;65.80;;;;;;4998937;28;20026;-80
2022/10/16 05:38:54;;;;;;;5.07;1.30;;;12.70;65.90;;;;;;4982830;28;20053;-79
2022/10/16 05:41:21;;;;;;;3.70;1.35;;;12.70;65.90;;;;;;4997953;28;20046;-78
2022/10/16 05:43:47;;;;;;;7.97;1.70;;;12.70;65.90;;;;;;4997041;28;20101;-81
2022/10/16 05:46:14;;;;;;;4.75;1.42;;;12.60;65.70;;;;;;4999230;28;20044;-82
2022/10/16 05:48:40;;;;;;;4.95;1.38;;;12.70;66.00;;;;;;5006671;28;20093;-81
2022/10/16 05:51:08;;;;;;;5.13;1.40;;;12.70;66.00;;;;;;4999609;28;20118;-80
2022/10/16 05:53:36;;;;;;;5.15;1.10;;;12.70;66.00;;;;;;4996826;28;20122;-79
2022/10/16 05:56:09;;;;;;;7.15;1.70;;;12.70;66.10;;;;;;4998432;28;20693;-79
2022/10/16 05:58:37;;;;;;;9.15;2.45;;;12.70;66.10;;;;;;4988973;28;20026;-79
2022/10/16 06:01:06;;;;;;;4.95;1.42;;;12.60;65.90;;;;;;4999415;28;20105;-80
2022/10/16 06:03:34;;;;;;;7.53;1.90;;;12.70;66.20;;;;;;4991634;28;20466;-84
2022/10/16 06:06:07;;;;;;;6.68;1.50;;;12.70;66.20;;;;;;4986804;28;20582;-83
2022/10/16 06:08:33;;;;;;;8.43;1.90;;;12.70;66.20;;;;;;4991513;28;20026;-88
2022/10/16 06:11:08;;;;;;;7.60;1.58;;;12.70;66.20;;;;;;4990553;28;20162;-89
2022/10/16 06:13:34;;;;;;;7.78;2.35;;;12.70;66.20;;;;;;4987894;28;20664;-86
2022/10/16 06:16:01;;;;;;;7.30;1.52;;;12.70;66.30;;;;;;5008696;28;20037;-96
2022/10/16 06:18:28;;;;;;;6.30;1.35;;;12.70;66.30;;;;;;5003448;28;20099;-88
2022/10/16 06:20:56;;;;;;;4.60;1.25;;;12.70;66.30;;;;;;4997454;28;20103;-87
2022/10/16 06:23:23;;;;;;;7.07;1.58;;;12.70;66.40;;;;;;4988324;28;20054;-87
2022/10/16 06:25:49;;;;;;;7.45;1.50;;;12.70;66.40;;;;;;4980919;28;20046;-83
2022/10/16 06:28:15;;;;;;;4.47;2.45;;;12.60;66.30;;;;;;4986973;28;20034;-87
2022/10/16 06:30:43;;;;;;;8.95;2.15;;;12.60;66.40;;;;;;4994497;28;20029;-86
2022/10/16 06:33:10;;;;;;;4.85;2.00;;;12.60;66.40;;;;;;5000006;28;20493;-83
2022/10/16 06:35:36;;;;;;;4.00;1.38;;;12.60;66.50;;;;;;4980802;28;20034;-88
2022/10/16 06:38:02;;;;;;;7.53;1.75;;;12.50;66.30;;;;;;4986523;28;20068;-85
2022/10/16 06:40:28;;;;;;;3.85;1.50;;;12.50;66.40;;;;;;4980495;28;20152;-86
2022/10/16 06:42:57;;;;;;;3.75;1.33;;;12.40;66.30;;;;;;4982917;28;20482;-87
2022/10/16 06:45:24;;;;;;;6.47;1.40;;;12.40;66.40;;;;;;4987315;28;20060;-86
2022/10/16 06:47:53;;;;;;;7.25;1.38;;;12.40;66.40;;;;;;4989312;28;20100;-89
2022/10/16 06:50:18;;;;;;;7.75;2.75;;;12.40;66.50;;;;;;4992284;28;20046;-93
2022/10/16 06:52:44;;;;;;;7.82;2.40;;;12.30;66.30;;;;;;4985696;28;20029;-92
2022/10/16 06:55:10;;;;;;;11.02;2.40;;;12.30;66.60;;;;;;4987942;28;20066;-82
2022/10/16 06:57:36;;;;;;;8.52;1.75;;;12.30;67.30;;;;;;4983317;28;20081;-82
2022/10/16 07:00:03;;;;;;;11.38;2.42;;;12.30;67.70;;;;;;4971341;28;20402;-81
2022/10/16 07:02:29;;;;;;;7.40;1.73;;;12.40;68.00;;;;;;4970394;28;20034;-81
2022/10/16 07:04:56;;;;;;;3.38;1.40;;;12.30;67.80;;;;;;4991758;28;20650;-84
2022/10/16 07:07:24;;;;;;;5.50;1.42;;;12.40;68.00;;;;;;4985713;28;20494;-84
2022/10/16 07:09:50;;;;;;;7.15;2.28;;;12.30;67.80;;;;;;4987180;28;20057;-86
2022/10/16 07:12:16;;;;;;;6.22;2.20;;;12.30;67.80;;;;;;4985245;28;20030;-85
2022/10/16 07:14:42;;;;;;;4.38;1.27;;;12.30;67.80;;;;;;4987211;28;20359;-86
2022/10/16 07:17:08;;;;;;;6.43;1.85;;;12.20;67.70;;;;;;4987006;28;20458;-88
2022/10/16 07:19:34;;;;;;;5.85;1.83;;;12.20;67.60;;;;;;4991134;28;20553;-89
2022/10/16 07:22:00;;;;;;;6.20;1.60;;;12.20;67.60;;;;;;4985162;28;20033;-84
2022/10/16 07:24:26;;;;;;;8.18;1.92;;;12.10;67.40;;;;;;4981912;28;20089;-83
2022/10/16 07:26:52;;;;;;;6.97;2.55;;;12.10;67.50;;;;;;4986325;28;20050;-83
2022/10/16 07:29:20;;;;;;;6.07;1.63;;;12.10;67.50;;;;;;4994073;28;20064;-83
2022/10/16 07:31:49;;;;;;;6.18;1.65;;;12.10;67.50;;;;;;4980574;28;20026;-82
2022/10/16 07:34:17;;;;;;;7.82;1.65;;;12.10;67.50;;;;;;4968841;28;20031;-83
2022/10/16 07:36:42;;;;;;;6.93;1.60;;;12.10;67.50;;;;;;4984696;28;20022;-83
2022/10/16 07:39:08;;;;;;;6.72;2.05;;;12.00;67.40;;;;;;4987667;28;20799;-82
2022/10/16 07:41:36;;;;;;;8.18;1.50;;;12.00;67.30;;;;;;4984855;28;20088;-82
2022/10/16 07:44:03;;;;;;;7.20;1.67;;;12.00;67.40;;;;;;4983679;28;20030;-82
2022/10/16 07:46:29;;;;;;;6.60;1.63;;;12.00;67.30;;;;;;4984287;28;20058;-83
2022/10/16 07:48:55;;;;;;;4.40;1.50;;;12.10;67.50;;;;;;4983768;28;20022;-81
2022/10/16 07:51:25;;;;;;;7.50;1.80;;;12.10;67.50;;;;;;4979752;28;20066;-82
2022/10/16 07:53:51;;;;;;;7.25;1.33;;;12.10;67.40;;;;;;4990270;28;20560;-81
2022/10/16 07:56:19;;;;;;;5.28;1.70;;;12.10;67.40;;;;;;4984650;28;20033;-80
2022/10/16 07:58:45;;;;;;;7.28;2.60;;;12.10;67.40;;;;;;4969467;28;20030;-80
2022/10/16 08:01:13;;;;;;;6.10;1.60;;;12.10;67.30;;;;;;4984674;28;20018;-80
2022/10/16 08:03:42;;;;;;;5.28;1.55;;;12.10;67.30;;;;;;4978423;28;20042;-80
2022/10/16 08:06:08;;;;;;;8.05;4.03;;;12.20;67.50;;;;;;4984529;28;20042;-81
2022/10/16 08:08:35;;;;;;;9.85;2.00;;;12.20;67.40;;;;;;4984909;28;20283;-81
2022/10/16 08:11:03;;;;;;;6.25;2.00;;;12.30;67.50;;;;;;4987348;28;20547;-85
2022/10/16 08:13:30;;;;;;;7.45;1.60;;;12.30;67.50;;;;;;4956278;28;20034;-88
2022/10/16 08:15:57;;;;;;;8.00;1.77;;;12.30;67.40;;;;;;4988270;28;20087;-93
2022/10/16 08:18:23;;;;;;;7.88;1.92;;;12.40;67.50;;;;;;4989340;28;20034;-92
2022/10/16 08:20:56;;;;;;;6.55;2.35;;;12.40;67.50;;;;;;4995172;28;20142;-91
2022/10/16 08:23:22;;;;;;;20.60;11.68;;;12.40;67.40;;;;;;5006515;28;20077;-93
2022/10/16 08:25:50;;;;;;;15.27;7.78;;;12.40;67.50;;;;;;4990994;28;20120;-91
2022/10/16 08:28:17;;;;;;;14.00;7.88;;;12.40;67.70;;;;;;4968343;28;20533;-91
2022/10/16 08:30:43;;;;;;;13.57;6.05;;;12.40;67.70;;;;;;4998841;28;20044;-80
2022/10/16 08:33:09;;;;;;;12.15;5.30;;;12.40;67.70;;;;;;4988569;28;20046;-83
2022/10/16 08:35:36;;;;;;;8.95;4.35;;;12.40;67.80;;;;;;4994880;28;20406;-80
2022/10/16 08:38:04;;;;;;;14.40;4.75;;;12.50;68.00;;;;;;4994720;28;20037;-81
2022/10/16 08:40:32;;;;;;;10.73;4.65;;;12.50;68.00;;;;;;4985974;28;20031;-90
2022/10/16 08:43:43;;;;;;;13.90;3.90;;;12.50;68.10;;;;;;4996673;28;20029;-79
2022/10/16 08:46:23;;;;;;;7.80;4.15;;;12.50;68.20;;;;;;4964408;28;20038;-82
2022/10/16 08:48:54;;;;;;;8.63;3.70;;;12.50;68.10;;;;;;4993367;28;20050;-81
2022/10/16 08:51:26;;;;;;;8.00;3.00;;;12.50;68.10;;;;;;4991329;28;20038;-84
2022/10/16 08:53:59;;;;;;;10.85;3.08;;;12.50;68.10;;;;;;4995513;28;20105;-84
2022/10/16 08:56:26;;;;;;;10.23;3.38;;;12.60;68.30;;;;;;4987010;28;20032;-83
2022/10/16 08:58:54;;;;;;;6.70;2.35;;;12.60;68.20;;;;;;5007016;28;20022;-83
2022/10/16 09:01:23;;;;;;;10.18;2.78;;;12.60;68.20;;;;;;4998710;28;20035;-83
2022/10/16 09:04:08;;;;;;;9.00;3.85;;;12.60;68.20;;;;;;4995688;28;20042;-83
2022/10/16 09:06:46;;;;;;;8.32;2.50;;;12.60;68.20;;;;;;4996058;28;20053;-82
2022/10/16 09:09:21;;;;;;;10.00;2.83;;;12.60;68.20;;;;;;4990981;28;20377;-83
2022/10/16 09:12:13;;;;;;;10.77;2.58;;;12.70;68.30;;;;;;4994923;28;20125;-83
2022/10/16 09:14:47;;;;;;;6.72;2.65;;;12.70;68.40;;;;;;4993010;28;20075;-91
2022/10/16 09:17:35;;;;;;;9.25;2.35;;;12.70;68.20;;;;;;4996931;28;20082;-91
2022/10/16 09:20:36;;;;;;;9.00;2.42;;;12.80;68.50;;;;;;4991453;28;20332;-89
2022/10/16 09:23:05;;;;;;;6.97;2.28;;;12.80;68.40;;;;;;4985994;28;20043;-95
2022/10/16 09:25:32;;;;;;;9.73;2.15;;;12.90;68.40;;;;;;4980175;28;20053;-94
2022/10/16 09:27:58;;;;;;;8.02;1.98;;;12.90;68.40;;;;;;4999186;28;20117;-91
2022/10/16 09:30:29;;;;;;;7.35;1.60;;;13.00;68.50;;;;;;5007643;28;20029;-94
2022/10/16 09:32:57;;;;;;;6.13;1.92;;;13.00;68.50;;;;;;4998236;28;20045;-85
2022/10/16 09:35:39;;;;;;;15.38;3.67;;;13.10;68.50;;;;;;4993442;28;20104;-90
2022/10/16 09:38:06;;;;;;;8.38;1.85;;;13.20;68.60;;;;;;4983059;28;20026;-88
2022/10/16 09:40:35;;;;;;;11.10;2.50;;;13.40;68.80;;;;;;4988052;28;20495;-90
2022/10/16 09:43:21;;;;;;;6.15;1.83;;;13.40;68.70;;;;;;4976975;28;20079;-79
2022/10/16 09:46:02;;;;;;;8.90;1.90;;;13.60;69.20;;;;;;4992761;28;20421;-81
2022/10/16 09:48:47;;;;;;;10.10;2.08;;;13.80;69.10;;;;;;4994448;28;20116;-91
2022/10/16 09:51:21;;;;;;;9.63;2.03;;;13.90;69.20;;;;;;4976782;28;20053;-90
2022/10/16 09:53:54;;;;;;;9.90;2.28;;;14.10;69.50;;;;;;4993577;28;20026;-87
2022/10/16 09:56:36;;;;;;;11.60;2.95;;;14.40;70.40;;;;;;4988550;28;20038;-84
2022/10/16 09:59:30;;;;;;;11.43;2.72;;;14.70;70.40;;;;;;4996654;28;20035;-84
2022/10/16 10:02:03;;;;;;;7.28;1.88;;;15.10;70.60;;;;;;4991778;28;20093;-87
2022/10/16 10:04:43;;;;;;;8.07;1.85;;;15.40;70.40;;;;;;4995893;28;20034;-91
2022/10/16 10:07:20;;;;;;;8.75;1.92;;;15.60;70.40;;;;;;4994394;28;20338;-90
2022/10/16 10:09:48;;;;;;;12.10;2.90;;;15.80;70.50;;;;;;4995660;28;20520;-90
2022/10/16 10:12:23;;;;;;;11.48;3.65;;;16.00;70.60;;;;;;4961504;28;20109;-90
2022/10/16 10:14:56;;;;;;;11.10;3.03;;;16.10;70.70;;;;;;4991363;28;20158;-88
2022/10/16 10:17:26;;;;;;;7.75;2.67;;;16.30;70.90;;;;;;4998613;28;20030;-90
2022/10/16 10:19:55;;;;;;;8.10;2.30;;;16.40;71.00;;;;;;4989708;28;20056;-82
2022/10/16 10:22:30;;;;;;;12.38;3.05;;;16.40;70.90;;;;;;4997013;28;20033;-85
2022/10/16 10:25:08;;;;;;;7.63;2.75;;;16.60;71.10;;;;;;5008357;28;20053;-86
2022/10/16 10:27:50;;;;;;;8.73;2.90;;;16.60;70.90;;;;;;5001158;28;20149;-82
2022/10/16 10:30:36;;;;;;;6.50;1.77;;;16.60;70.70;;;;;;5008200;28;20038;-81
2022/10/16 10:33:36;;;;;;;7.88;1.73;;;16.60;70.60;;;;;;5000636;28;20062;-82
2022/10/16 10:36:29;;;;;;;6.45;1.90;;;16.60;70.40;;;;;;5007803;28;20058;-82
2022/10/16 10:39:03;;;;;;;5.80;1.58;;;16.50;70.20;;;;;;5002894;28;20046;-83
2022/10/16 10:41:58;;;;;;;6.50;1.92;;;16.40;70.10;;;;;;5008323;28;20045;-80
2022/10/16 10:44:42;;;;;;;8.18;2.58;;;16.40;70.10;;;;;;4999258;28;20569;-84
2022/10/16 10:47:30;;;;;;;7.65;2.55;;;16.30;69.90;;;;;;5002182;28;20158;-82
2022/10/16 10:50:21;;;;;;;10.77;1.75;;;16.30;69.90;;;;;;4997925;28;20042;-83
2022/10/16 10:52:59;;;;;;;7.55;2.45;;;16.30;70.00;;;;;;4992180;28;20054;-83
2022/10/16 10:55:39;;;;;;;9.50;1.88;;;16.30;70.10;;;;;;5005579;28;20058;-86
2022/10/16 10:58:22;;;;;;;9.05;1.70;;;16.30;70.00;;;;;;5008665;28;20034;-87
2022/10/16 11:01:06;;;;;;;6.75;1.67;;;16.30;69.90;;;;;;5004246;28;20042;-86
2022/10/16 11:04:04;;;;;;;7.75;2.45;;;16.30;69.80;;;;;;4997532;28;20057;-85
2022/10/16 11:06:44;;;;;;;6.00;1.63;;;16.30;69.60;;;;;;5004309;28;20071;-87
2022/10/16 11:09:16;;;;;;;7.82;2.25;;;16.30;69.50;;;;;;5001911;28;20050;-85
2022/10/16 11:11:46;;;;;;;5.32;1.27;;;16.30;69.40;;;;;;5006202;28;20061;-84
2022/10/16 11:14:35;;;;;;;5.50;1.13;;;16.30;69.30;;;;;;5005824;28;20065;-88
2022/10/16 11:17:12;;;;;;;6.00;2.42;;;16.30;69.00;;;;;;5019547;28;20066;-84
2022/10/16 11:19:41;;;;;;;6.15;1.33;;;16.30;69.00;;;;;;4993302;28;20030;-85
2022/10/16 11:22:32;;;;;;;5.68;2.03;;;16.40;69.00;;;;;;4981114;28;20121;-83
2022/10/16 11:25:02;;;;;;;5.55;1.63;;;16.40;68.70;;;;;;5007348;28;20038;-90
2022/10/16 11:27:47;;;;;;;4.63;1.23;;;16.40;68.50;;;;;;4997926;28;20069;-84
2022/10/16 11:30:19;;;;;;;5.07;1.80;;;16.50;68.40;;;;;;4999121;28;20049;-83
2022/10/16 11:32:55;;;;;;;4.00;0.77;;;16.60;68.40;;;;;;4996838;28;20026;-84
2022/10/16 11:35:45;;;;;;;6.60;1.38;;;16.60;68.20;;;;;;4980274;28;20034;-83
2022/10/16 11:38:34;;;;;;;7.28;2.08;;;16.70;68.10;;;;;;4953381;28;20054;-85
2022/10/16 11:41:28;;;;;;;7.25;1.40;;;16.70;67.80;;;;;;4981402;28;20101;-86
2022/10/16 11:44:35;;;;;;;3.17;0.98;;;16.80;67.70;;;;;;4991859;28;20341;-89
2022/10/16 11:47:11;;;;;;;5.45;1.40;;;16.80;67.50;;;;;;4977994;28;20081;-86
2022/10/16 11:49:40;;;;;;;5.10;1.20;;;16.80;67.50;;;;;;5005216;28;20085;-87
2022/10/16 11:52:12;;;;;;;8.30;1.55;;;16.80;67.30;;;;;;4952666;28;20035;-85
2022/10/16 11:54:49;;;;;;;6.90;1.42;;;16.80;67.00;;;;;;4965518;28;20030;-83
2022/10/16 11:57:29;;;;;;;3.75;1.23;;;17.00;67.20;;;;;;4987389;28;20041;-83
2022/10/16 12:00:31;;;;;;;2.72;0.90;;;17.10;67.10;;;;;;4982701;28;20039;-84
2022/10/16 12:03:24;;;;;;;5.55;1.58;;;17.20;67.50;;;;;;4986954;28;20039;-82
2022/10/16 12:06:11;;;;;;;;;;;17.40;67.50;;;;;;4983685;28;20035;-81
2022/10/16 12:08:37;;;;;;;6.97;1.55;;;17.60;67.60;;;;;;5007833;28;19914;-82
2022/10/16 12:11:08;;;;;;;6.75;1.23;;;17.90;67.60;;;;;;4989176;28;20034;-85
2022/10/16 12:13:39;;;;;;;5.72;1.33;;;18.10;67.60;;;;;;4984226;28;20034;-88
2022/10/16 12:16:11;;;;;;;6.43;2.08;;;18.30;67.60;;;;;;4987691;28;20026;-89
2022/10/16 12:18:42;;;;;;;5.50;1.67;;;18.50;67.60;;;;;;4987352;28;20029;-84
2022/10/16 12:21:10;;;;;;;5.85;1.35;;;18.80;67.60;;;;;;4988369;28;20029;-82
2022/10/16 12:23:57;;;;;;;7.78;2.88;;;19.00;67.40;;;;;;4988431;28;20097;-83
2022/10/16 12:26:26;;;;;;;8.38;2.28;;;19.30;67.10;;;;;;4982169;28;20042;-82
2022/10/16 12:28:53;;;;;;;5.72;1.60;;;19.50;66.70;;;;;;4992322;28;20044;-87
2022/10/16 12:31:18;;;;;;;7.25;1.60;;;19.80;66.60;;;;;;4989759;28;20027;-83
2022/10/16 12:34:02;;;;;;;5.60;1.48;;;20.00;66.30;;;;;;4985942;28;20030;-84
2022/10/16 12:36:35;;;;;;;6.60;1.75;;;20.20;65.70;;;;;;5002084;28;20369;-82
2022/10/16 12:39:02;;;;;;;5.68;2.03;;;20.40;65.60;;;;;;4988811;28;20065;-81
2022/10/16 12:41:34;;;;;;;5.47;1.25;;;20.70;65.70;;;;;;4986841;28;20030;-81
2022/10/16 12:44:01;;;;;;;6.13;1.77;;;20.90;65.40;;;;;;4982582;28;20038;-81
2022/10/16 12:46:30;;;;;;;4.88;1.77;;;21.10;65.00;;;;;;4989807;28;20120;-85
2022/10/16 12:49:27;;;;;;;8.40;2.10;;;21.30;64.60;;;;;;5002517;28;20121;-85
2022/10/16 12:51:54;;;;;;;7.57;1.92;;;21.60;64.00;;;;;;4974533;28;20054;-83
2022/10/16 12:54:43;;;;;;;6.65;2.15;;;21.80;64.00;;;;;;4997887;28;20141;-84
2022/10/16 12:57:19;;;;;;;5.85;1.75;;;21.90;63.50;;;;;;5000377;28;20030;-83
2022/10/16 12:59:57;;;;;;;6.97;2.17;;;22.10;63.20;;;;;;4994378;28;20038;-83
2022/10/16 13:02:55;;;;;;;5.90;1.92;;;22.20;62.80;;;;;;5012461;28;20117;-82
2022/10/16 13:05:35;;;;;;;6.10;2.00;;;22.30;62.50;;;;;;4962335;28;20458;-84
2022/10/16 13:08:34;;;;;;;6.05;1.63;;;22.30;62.50;;;;;;5001283;28;20111;-83